Weather observations for the past three days for
Boone Municipal
Imperial (Metric)
Date Time (cdt) Wind (mph) Vis. (mi.) Weather Sky Cond. Temperature (ºF) Relative Humidity Wind Chill (°F) Heat Index (°F) Pressure Precipitation (in)
Air Dwpt 6 hour altimeter (in) sea level (mb) 1 hr 3 hr 6 hr
Max. Min.
10 09:35 Vrbl 7 G 14 10.00 Fair CLR 59 30.2 34% 30.13 0.0
10 09:15 Vrbl 8 10.00 Fair CLR 57.2 28.4 33% 30.13 0.0
10 08:55 W 8 10.00 Fair CLR 55.4 26.6 33% 30.13 0.0
10 08:35 W 7 10.00 Fair CLR 53.6 26.6 35% 30.13 0.0
10 07:55 W 6 10.00 Fair CLR 48.2 30.2 50% 46 30.12 0.0
10 07:35 W 5 10.00 Fair CLR 46.4 30.2 53% 45 30.12 0.0
10 07:15 W 5 10.00 Fair CLR 44.6 30.2 57% 43 30.11 0.0
10 06:55 SW 6 10.00 Fair CLR 42.8 28.4 57% 40 30.11 0.0
10 06:35 W 3 10.00 Fair CLR 41 26.6 57% 30.1 0.0
10 06:15 W 5 10.00 Fair CLR 42.8 24.8 49% 41 30.1 0.0
10 05:55 NW 5 10.00 Fair CLR 41 24.8 53% 38 30.09 0.0
10 05:35 NW 5 10.00 Fair CLR 41 24.8 53% 38 30.09 0.0
10 05:15 NW 5 10.00 Fair CLR 42.8 23 46% 41 30.08 0.0
10 04:55 N 7 10.00 Fair CLR 41 24.8 53% 37 30.08 0.0
10 04:35 N 5 10.00 Fair CLR 41 23 49% 38 30.08 0.0
10 04:15 N 7 10.00 Fair CLR 39.2 24.8 56% 35 30.07 0.0
10 03:55 N 8 10.00 Fair CLR 39.2 24.8 56% 34 30.07 0.0
10 03:35 N 7 10.00 Fair CLR 41 24.8 53% 37 30.06 0.0
10 03:15 N 7 10.00 Fair CLR 41 24.8 53% 37 30.06 0.0
10 02:55 NW 7 10.00 Fair CLR 42.8 23 46% 39 30.06 0.0
10 02:35 N 10 10.00 Fair CLR 42.8 23 46% 38 30.04 0.0
10 02:15 N 8 10.00 Fair CLR 42.8 24.8 49% 39 30.04 0.0
10 01:55 N 10 10.00 NULL NULL 42.8 24.8 49% 38 30.03 0.0
10 01:35 N 9 10.00 Fair CLR 44.6 23 43% 40 30.02 0.0
10 01:15 N 8 10.00 Fair CLR 44.6 23 43% 41 30.02 0.0
10 00:55 N 9 10.00 Fair CLR 46.4 23 40% 42 30.01 0.0
10 00:35 N 8 10.00 Fair CLR 48.2 23 37% 45 30 0.0
10 00:20 N 10 10.00 Fair CLR 48.2 23 37% 44 30 0.0
09 23:50 N 10 10.00 Fair CLR 48.2 23 37% 44 29.98 0.0
09 23:35 N 10 10.00 Fair CLR 50 23 35% 46 29.98 0.0
09 23:15 N 9 10.00 Fair CLR 48.2 24.8 40% 45 29.98 0.0
09 22:55 N 9 10.00 Fair CLR 50 23 35% 47 29.98 0.0
09 22:15 N 10 10.00 NULL NULL 51.8 24.8 35% 29.96 0.0
09 21:55 N 10 10.00 Fair CLR 53.6 24.8 33% 29.95 0.0
09 21:35 N 10 10.00 Fair CLR 53.6 24.8 33% 29.94 0.0
09 21:15 N 12 10.00 Fair CLR 55.4 24.8 31% 29.92 0.0
09 20:55 N 10 10.00 Fair CLR 55.4 26.6 33% 29.91 0.0
09 20:35 NW 9 10.00 Fair CLR 57.2 26.6 31% 29.9 0.0
09 20:15 N 13 G 21 10.00 Fair CLR 59 26.6 29% 29.89 0.0
09 19:55 N 12 G 18 10.00 Fair CLR 60.8 26.6 27% 29.87 0.0
09 19:35 N 16 G 24 10.00 Fair CLR 62.6 26.6 25% 29.86 0.0
09 19:15 N 18 G 25 10.00 Fair CLR 64.4 28.4 26% 29.85 0.0
09 18:55 NW 16 G 24 10.00 Fair CLR 64.4 28.4 26% 29.85 0.0
09 18:35 NW 20 10.00 Fair CLR 64.4 28.4 26% 29.84 0.0
09 18:15 NW 16 G 24 10.00 Fair CLR 66.2 30.2 26% 29.83 0.0
09 17:55 NW 15 G 23 10.00 Fair CLR 66.2 30.2 26% 29.83 0.0
09 17:35 N 15 10.00 Fair CLR 66.2 32 28% 29.82 0.0
09 17:15 NW 15 10.00 Fair CLR 66.2 33.8 30% 29.81 0.0
09 16:55 NW 15 G 21 10.00 Fair CLR 66.2 32 28% 29.8 0.0
09 16:35 N 15 G 24 10.00 Fair CLR 66.2 33.8 30% 29.8 0.0
09 16:15 NW 14 G 24 10.00 Fair CLR 68 35.6 30% 29.8 0.0
09 15:55 NW 14 G 24 10.00 Fair CLR 66.2 35.6 32% 29.8 0.0
09 15:35 NW 14 G 23 10.00 Fair CLR 68 37.4 33% 29.8 0.0
09 15:15 NW 16 10.00 A Few Clouds FEW120 68 41 38% 29.79 0.0
09 14:55 NW 8 G 18 10.00 Fair CLR 66.2 42.8 43% 29.8 0.0
09 14:35 NW 12 G 22 10.00 A Few Clouds FEW100 66.2 42.8 43% 29.8 0.0
09 14:15 N 10 G 24 10.00 Mostly Cloudy BKN100 64.4 44.6 49% 29.79 0.0
09 13:55 NW 14 G 21 10.00 Partly Cloudy SCT110 64.4 44.6 49% 29.79 0.0
09 13:35 NW 15 10.00 Partly Cloudy SCT110 64.4 44.6 49% 29.78 0.0
09 13:15 NW 14 G 21 10.00 Fair CLR 66.2 44.6 46% 29.77 0.0
09 12:55 Calm 10.00 A Few Clouds FEW100 66.2 42.8 43% 29.77 0.0
09 12:35 NW 13 G 22 10.00 A Few Clouds FEW100 66.2 42.8 43% 29.77 0.0
09 12:15 N 16 10.00 A Few Clouds FEW110 68 42.8 40% 29.76 0.0
09 11:55 NW 12 G 21 10.00 Partly Cloudy SCT110 66.2 41 40% 29.76 0.0
09 11:35 NW 15 G 22 10.00 A Few Clouds FEW110 68 41 38% 29.76 0.0
09 11:15 NW 13 G 21 10.00 Fair CLR 66.2 37.4 35% 29.76 0.0
09 10:55 NW 10 10.00 A Few Clouds FEW110 66.2 39.2 37% 29.75 0.0
09 10:35 NW 14 G 21 10.00 Partly Cloudy SCT110 64.4 37.4 37% 29.75 0.0
09 10:15 NW 16 G 22 10.00 A Few Clouds FEW100 66.2 35.6 32% 29.74 0.0
09 09:55 NW 9 G 18 10.00 Fair CLR 64.4 35.6 34% 29.74 0.0
09 09:35 NW 17 10.00 A Few Clouds FEW110 62.6 33.8 34% 29.75 0.0
09 09:15 NW 17 10.00 Fair CLR 64.4 33.8 32% 29.75 0.0
09 08:55 NW 12 G 20 10.00 Fair CLR 62.6 33.8 34% 29.74 0.0
09 08:35 NW 14 10.00 Fair CLR 60.8 35.6 39% 29.75 0.0
09 08:15 NW 16 G 32 10.00 Fair CLR 57.2 35.6 44% 29.73 0.0
09 07:55 SW 8 10.00 Fair CLR 55.4 33.8 44% 29.69 0.0
09 07:35 W 9 10.00 Fair CLR 53.6 33.8 47% 29.69 0.0
09 07:15 W 8 10.00 Fair CLR 50 33.8 54% 47 29.69 0.0
09 06:55 SW 9 10.00 Fair CLR 48.2 33.8 58% 45 29.68 0.0
09 06:35 SW 8 10.00 Fair CLR 48.2 33.8 58% 45 29.68 0.0
09 06:15 W 8 10.00 Fair CLR 46.4 33.8 62% 43 29.68 0.0
09 05:55 W 8 10.00 Fair CLR 46.4 33.8 62% 43 29.67 0.0
09 05:35 W 7 10.00 Fair CLR 46.4 33.8 62% 43 29.67 0.0
09 05:15 W 7 10.00 Fair CLR 46.4 33.8 62% 43 29.67 0.0
09 04:55 W 6 10.00 Fair CLR 46.4 35.6 66% 44 29.68 0.0
09 04:35 W 8 10.00 Fair CLR 48.2 35.6 62% 45 29.68 0.0
09 04:15 W 8 10.00 Fair CLR 48.2 35.6 62% 45 29.68 0.0
09 03:55 W 7 10.00 Fair CLR 50 35.6 58% 48 29.68 0.0
09 03:35 W 8 10.00 Fair CLR 50 37.4 62% 47 29.68 0.0
09 02:55 W 7 10.00 Fair CLR 53.6 32 44% 29.67 0.0
09 02:35 NW 6 10.00 Fair CLR 57.2 32 39% 29.67 0.0
09 02:15 NW 7 10.00 Fair CLR 57.2 32 39% 29.67 0.0
09 01:55 NW 8 10.00 Fair CLR 57.2 32 39% 29.68 0.0
09 01:35 NW 7 10.00 Fair CLR 59 32 36% 29.68 0.0
09 01:15 NW 8 10.00 Fair CLR 59 33.8 39% 29.68 0.0
09 00:55 NW 7 10.00 Fair CLR 59 33.8 39% 29.68 0.0
09 00:35 NW 7 10.00 Fair CLR 59 33.8 39% 29.67 0.0
09 00:15 NW 7 10.00 A Few Clouds FEW110 60.8 35.6 39% 29.68 0.0
08 23:55 W 8 10.00 Mostly Cloudy BKN110 62.6 35.6 37% 29.68 0.0
08 23:35 W 9 10.00 Overcast FEW080 OVC100 64.4 35.6 34% 29.67 0.0
08 23:15 SW 8 10.00 Overcast OVC110 64.4 35.6 34% 29.67 0.0
08 22:55 SW 9 10.00 Overcast OVC110 64.4 35.6 34% 29.67 0.0
08 22:35 W 7 10.00 Mostly Cloudy BKN120 64.4 35.6 34% 29.66 0.0
08 22:15 SW 8 10.00 Fair CLR 62.6 35.6 37% 29.65 0.0
08 21:55 SW 8 10.00 Fair CLR 64.4 33.8 32% 29.64 0.0
08 21:35 W 5 10.00 A Few Clouds FEW110 64.4 33.8 32% 29.64 0.0
08 21:15 W 6 10.00 NULL NULL 66.2 33.8 30% 29.63 0.0
08 20:55 SW 5 10.00 Mostly Cloudy BKN110 68 33.8 28% 29.62 0.0
08 20:35 SW 8 10.00 Mostly Cloudy BKN110 69.8 33.8 27% 29.63 0.0
08 20:15 SW 9 10.00 Overcast OVC110 69.8 33.8 27% 29.62 0.0
08 19:35 W 8 10.00 Mostly Cloudy BKN110 71.6 32 23% 29.62 0.0
08 19:15 W 9 9.00 Partly Cloudy SCT100 71.6 33.8 25% 29.62 0.0
08 18:55 W 7 10.00 Mostly Cloudy BKN100 71.6 32 23% 29.63 0.0
08 18:35 W 12 10.00 A Few Clouds FEW110 73.4 30.2 20% 29.63 0.0
08 18:15 W 13 G 21 10.00 Fair CLR 73.4 30.2 20% 29.64 0.0
08 17:55 W 13 10.00 A Few Clouds FEW120 73.4 30.2 20% 29.64 0.0
08 17:15 W 12 G 23 10.00 Partly Cloudy SCT120 75.2 30.2 19% 76 29.65 0.0
08 16:55 W 14 10.00 Partly Cloudy SCT110 75.2 28.4 18% 76 29.65 0.0
08 16:35 Vrbl 6 G 16 10.00 A Few Clouds FEW120 75.2 28.4 18% 76 29.66 0.0
08 16:15 W 7 G 14 10.00 Partly Cloudy SCT120 73.4 30.2 20% 29.66 0.0
08 15:55 SW 8 10.00 Partly Cloudy SCT110 73.4 28.4 19% 29.67 0.0
08 15:35 SW 8 G 16 10.00 Mostly Cloudy BKN110 75.2 26.6 16% 76 29.68 0.0
08 15:15 NW 10 G 17 10.00 Partly Cloudy SCT110 73.4 32 22% 29.69 0.0
08 14:55 W 6 G 14 10.00 Partly Cloudy SCT110 73.4 28.4 19% 29.7 0.0
08 14:35 NW 13 10.00 A Few Clouds FEW110 73.4 30.2 20% 29.71 0.0
08 14:15 W 8 G 14 10.00 Fair CLR 73.4 28.4 19% 29.72 0.0
08 13:55 Vrbl 7 G 14 10.00 Fair CLR 73.4 28.4 19% 29.72 0.0
08 13:35 W 9 10.00 Fair CLR 71.6 28.4 20% 29.73 0.0
08 13:15 Vrbl 6 G 13 10.00 Fair CLR 71.6 28.4 20% 29.74 0.0
08 12:55 W 10 10.00 Fair CLR 69.8 30.2 23% 29.75 0.0
08 12:35 Vrbl 5 10.00 Fair CLR 69.8 28.4 21% 29.75 0.0
08 12:15 Vrbl 7 G 15 10.00 Fair CLR 69.8 30.2 23% 29.77 0.0
08 11:55 NW 7 10.00 Fair CLR 68 32 26% 29.77 0.0
08 11:35 Vrbl 6 10.00 Fair CLR 68 33.8 28% 29.77 0.0
08 11:15 SW 3 G 12 10.00 Fair CLR 66.2 30.2 26% 29.78 0.0
08 10:55 Vrbl 6 G 13 10.00 Fair CLR 66.2 32 28% 29.78 0.0
08 10:35 SW 9 10.00 Fair CLR 64.4 37.4 37% 29.79 0.0
08 10:15 SW 7 10.00 Fair CLR 64.4 37.4 37% 29.79 0.0
08 09:55 SW 10 10.00 Fair CLR 64.4 39.2 40% 29.79 0.0
08 09:35 SW 9 10.00 Fair CLR 62.6 37.4 39% 29.8 0.0
08 09:15 S 6 10.00 Fair CLR 60.8 35.6 39% 29.8 0.0
08 08:55 SW 6 10.00 Fair CLR 57.2 33.8 41% 29.8 0.0
08 08:15 S 7 10.00 Fair CLR 55.4 32 41% 29.8 0.0
08 07:35 S 9 10.00 Fair CLR 51.8 26.6 38% 29.8 0.0
08 07:15 SE 6 10.00 Fair CLR 51.8 26.6 38% 29.79 0.0
08 06:55 SE 3 10.00 Fair CLR 46.4 30.2 53% 29.79 0.0
08 06:35 Calm 10.00 Fair CLR 42.8 28.4 57% 29.79 0.0
08 06:15 S 3 10.00 Fair CLR 42.8 26.6 53% 29.79 0.0
08 05:55 S 5 0.00 Fair CLR 44.6 24.8 46% 43 29.8 0.0
08 05:35 S 5 10.00 Fair CLR 46.4 24.8 43% 45 29.8 0.0
08 05:15 SE 5 10.00 NULL NULL 46.4 24.8 43% 45 29.8 0.0
08 04:55 SE 3 10.00 NULL NULL 46.4 24.8 43% 29.8 0.0
08 04:35 SE 3 10.00 NULL NULL 46.4 24.8 43% 29.8 0.0
08 04:15 SE 3 10.00 A Few Clouds FEW047 FEW055 46.4 26.6 46% 29.8 0.0
08 03:55 SE 5 10.00 Fair CLR 48.2 24.8 40% 47 29.8 0.0
08 03:35 SE 6 10.00 Fair CLR 48.2 24.8 40% 46 29.8 0.0
08 03:15 SE 7 10.00 NULL NULL 48.2 24.8 40% 46 29.8 0.0
08 02:35 E 5 10.00 NULL NULL 46.4 24.8 43% 45 29.81 0.0
08 02:15 E 6 10.00 NULL NULL 48.2 24.8 40% 46 29.82 0.0
08 01:55 E 6 10.00 Fair CLR 46.4 26.6 46% 44 29.81 0.0
08 01:35 E 5 10.00 Fair CLR 46.4 26.6 46% 45 29.81 0.0
08 01:15 E 6 10.00 Fair CLR 46.4 24.8 43% 44 29.82 0.0
08 00:55 E 9 10.00 Fair CLR 46.4 26.6 46% 42 29.82 0.0
08 00:35 E 10 10.00 Fair CLR 48.2 26.6 43% 44 29.82 0.0
08 00:15 E 9 10.00 Fair CLR 46.4 26.6 46% 42 29.82 0.0
07 23:55 E 8 10.00 A Few Clouds FEW080 48.2 26.6 43% 45 29.83 0.0
07 23:35 E 5 10.00 Partly Cloudy SCT080 48.2 26.6 43% 47 29.83 0.0
07 23:15 E 6 10.00 Fair CLR 48.2 24.8 40% 46 29.83 0.0
07 22:55 NE 7 10.00 Fair CLR 51.8 24.8 35% 29.83 0.0
07 22:35 NE 8 10.00 Fair CLR 51.8 24.8 35% 29.82 0.0
07 21:55 N 8 10.00 A Few Clouds FEW040 FEW085 55.4 26.6 33% 29.82 0.0
07 21:35 N 8 10.00 Partly Cloudy SCT085 55.4 26.6 33% 29.82 0.0
07 21:15 N 8 10.00 Mostly Cloudy BKN090 55.4 26.6 33% 29.81 0.0
07 20:55 N 8 10.00 Mostly Cloudy BKN090 57.2 26.6 31% 29.8 0.0
07 20:35 NE 7 10.00 Mostly Cloudy BKN090 59 28.4 31% 29.79 0.0
07 20:15 NW 6 10.00 Mostly Cloudy BKN090 62.6 26.6 25% 29.78 0.0
07 19:55 NW 6 10.00 A Few Clouds FEW090 62.6 28.4 27% 29.77 0.0
07 19:35 NW 7 10.00 Fair CLR 62.6 28.4 27% 29.77 0.0
07 19:15 N 10 10.00 Fair CLR 64.4 30.2 28% 29.77 0.0
07 18:55 N 9 G 15 9.00 Partly Cloudy SCT090 66.2 28.4 24% 29.77 0.0
07 18:35 NW 9 10.00 Mostly Cloudy BKN090 68 28.4 23% 29.77 0.0
07 18:15 NW 9 G 16 9.00 Fair CLR 66.2 30.2 26% 29.77 0.0
07 17:55 NW 6 10.00 A Few Clouds FEW085 66.2 32 28% 29.77 0.0
07 17:35 NW 9 10.00 Mostly Cloudy BKN085 66.2 32 28% 29.77 0.0
07 17:15 NW 5 G 14 10.00 Partly Cloudy SCT085 68 33.8 28% 29.77 0.0
07 16:55 NW 9 G 18 10.00 Partly Cloudy SCT085 66.2 33.8 30% 29.78 0.0
07 16:35 Vrbl 3 G 15 10.00 A Few Clouds FEW095 66.2 30.2 26% 29.78 0.0
07 16:15 W 9 G 17 10.00 Fair CLR 66.2 32 28% 29.79 0.0
07 15:55 NW 12 G 18 10.00 Fair CLR 66.2 32 28% 29.8 0.0
07 15:35 NW 10 G 20 10.00 Fair CLR 64.4 32 30% 29.8 0.0
07 15:15 Vrbl 6 G 14 10.00 Fair CLR 64.4 30.2 28% 29.81 0.0
07 14:35 W 8 G 14 10.00 Fair CLR 62.6 32 32% 29.83 0.0
07 14:15 N 7 G 16 10.00 Partly Cloudy SCT095 62.6 35.6 37% 29.83 0.0
07 13:55 W 8 10.00 Mostly Cloudy BKN100 62.6 33.8 34% 29.83 0.0
07 13:35 Vrbl 6 G 17 10.00 Partly Cloudy SCT100 60.8 37.4 42% 29.84 0.0
07 13:15 Vrbl 3 10.00 Partly Cloudy SCT095 59 35.6 42% 29.84 0.0
07 12:55 Vrbl 6 10.00 Mostly Cloudy BKN090 59 37.4 45% 29.85 0.0
07 12:15 SW 13 10.00 Partly Cloudy SCT090 57.2 41 55% 29.87 0.0
07 11:55 SW 9 G 20 10.00 Partly Cloudy SCT095 57.2 39.2 51% 29.87 0.0
07 11:35 SW 9 10.00 Partly Cloudy SCT095 57.2 39.2 51% 29.87 0.0
07 10:55 SW 12 10.00 Mostly Cloudy FEW065 BKN090 53.6 39.2 58% 29.87 0.0
07 10:35 S 10 G 16 10.00 Partly Cloudy SCT095 53.6 39.2 58% 29.86 0.0
07 10:15 SW 13 10.00 Partly Cloudy FEW080 SCT095 51.8 39.2 62% 29.87 0.0
07 09:55 S 10 10.00 Partly Cloudy SCT100 SCT120 50 41 71% 46 29.86 0.0
Date Time (cdt) Wind (mph) Vis. (mi.) Weather Sky Cond. Air Dwpt Max. Min. Relative Humidity Wind Chill (°F) Heat Index (°F) altimeter (in) sea level (mb) 1 hr 3 hr 6 hr
6 hour
Temperature (ºF) Pressure Precipitation (in)